05CO weather

Rancho De Aereo Airport
Mead, Colorado, United States

Public forecast

Using degrees Fahrenheit for public forecast. Weather courtesy of forecast.io.

Closest aviation weather report (METAR) to Rancho De Aereo Airport

Closest report is Vance Brand Airport, 8.8 nm (16.2 km) WSW. Retrieved 2020/04/02 00:15 UTC (4 minutes ago):

KLMO 020015Z AUTO 00000KT 10SM SCT120 19/M07 A2961 RMK AO2 T01921075

Closest aviation forecast (TAF) to Rancho De Aereo Airport

Closest forecast is Rocky Mountain Metropolitan Airport, 19.4 nm (35.9 km) SSW. Retrieved 2020-04-02 00:24 UTC (0 seconds ago):

TAF KBJC 012323Z 0200/0224 VRB04KT P6SM FEW070 SCT120 BKN220 FM020100 28008KT P6SM SCT070 BKN110 FM020400 05010KT P6SM FEW040 SCT060 BKN120 FM020700 08010KT P6SM OVC005 TEMPO 0209/0213 2SM -DZ BR BKN003 FM021300 06010KT 3SM -DZ BR BKN005 OVC008 FM021800 05015KT 4SM -SHSN BKN005 OVC010